sensor_id;sensor_type;location;lat;lon;timestamp;pressure;altitude;pressure_sealevel;temperature;humidity
76866;BME280;66647;52.124;5.416;2023-12-20T00:01:13;101689.91;;;5.10;100.00
76866;BME280;66647;52.124;5.416;2023-12-20T00:03:40;101697.53;;;5.08;100.00
76866;BME280;66647;52.124;5.416;2023-12-20T00:06:10;101682.84;;;5.09;100.00
76866;BME280;66647;52.124;5.416;2023-12-20T00:08:36;101688.28;;;5.09;100.00
76866;BME280;66647;52.124;5.416;2023-12-20T00:11:03;101675.50;;;5.04;100.00
76866;BME280;66647;52.124;5.416;2023-12-20T00:13:29;101677.38;;;4.99;100.00
76866;BME280;66647;52.124;5.416;2023-12-20T00:15:56;101680.63;;;4.96;100.00
76866;BME280;66647;52.124;5.416;2023-12-20T00:18:23;101674.66;;;4.94;100.00
76866;BME280;66647;52.124;5.416;2023-12-20T00:20:51;101671.38;;;4.92;100.00
76866;BME280;66647;52.124;5.416;2023-12-20T00:23:18;101676.53;;;4.88;100.00
76866;BME280;66647;52.124;5.416;2023-12-20T00:25:45;101678.72;;;4.86;100.00
76866;BME280;66647;52.124;5.416;2023-12-20T00:28:11;101675.44;;;4.84;100.00
76866;BME280;66647;52.124;5.416;2023-12-20T00:30:41;101667.28;;;4.79;100.00
76866;BME280;66647;52.124;5.416;2023-12-20T00:33:07;101668.63;;;4.77;100.00
76866;BME280;66647;52.124;5.416;2023-12-20T00:35:34;101683.56;;;4.74;100.00
76866;BME280;66647;52.124;5.416;2023-12-20T00:38:01;101684.09;;;4.71;100.00
76866;BME280;66647;52.124;5.416;2023-12-20T00:40:30;101685.44;;;4.68;100.00
76866;BME280;66647;52.124;5.416;2023-12-20T00:42:56;101680.00;;;4.68;100.00
76866;BME280;66647;52.124;5.416;2023-12-20T00:45:23;101680.25;;;4.67;100.00
76866;BME280;66647;52.124;5.416;2023-12-20T00:47:49;101676.72;;;4.66;100.00
76866;BME280;66647;52.124;5.416;2023-12-20T00:50:17;101680.78;;;4.64;100.00
76866;BME280;66647;52.124;5.416;2023-12-20T00:52:43;101671.00;;;4.63;100.00
76866;BME280;66647;52.124;5.416;2023-12-20T00:55:10;101669.09;;;4.58;100.00
76866;BME280;66647;52.124;5.416;2023-12-20T00:57:36;101679.41;;;4.56;100.00
76866;BME280;66647;52.124;5.416;2023-12-20T01:00:04;101679.97;;;4.53;100.00
76866;BME280;66647;52.124;5.416;2023-12-20T01:02:30;101675.06;;;4.50;100.00
76866;BME280;66647;52.124;5.416;2023-12-20T01:04:57;101680.75;;;4.49;100.00
76866;BME280;66647;52.124;5.416;2023-12-20T01:07:23;101677.47;;;4.47;100.00
76866;BME280;66647;52.124;5.416;2023-12-20T01:09:50;101664.72;;;4.47;100.00
76866;BME280;66647;52.124;5.416;2023-12-20T01:12:17;101664.72;;;4.47;100.00
76866;BME280;66647;52.124;5.416;2023-12-20T01:14:43;101659.28;;;4.47;100.00
76866;BME280;66647;52.124;5.416;2023-12-20T01:17:10;101663.34;;;4.45;100.00
76866;BME280;66647;52.124;5.416;2023-12-20T01:19:36;101665.50;;;4.43;100.00
76866;BME280;66647;52.124;5.416;2023-12-20T01:22:04;101664.69;;;4.42;100.00
76866;BME280;66647;52.124;5.416;2023-12-20T01:24:31;101657.06;;;4.39;100.00
76866;BME280;66647;52.124;5.416;2023-12-20T01:26:57;101664.66;;;4.37;100.00
76866;BME280;66647;52.124;5.416;2023-12-20T01:29:24;101673.88;;;4.36;100.00
76866;BME280;66647;52.124;5.416;2023-12-20T01:31:54;101680.94;;;4.37;100.00
76866;BME280;66647;52.124;5.416;2023-12-20T01:34:20;101678.22;;;4.37;100.00
76866;BME280;66647;52.124;5.416;2023-12-20T01:36:47;101681.75;;;4.37;100.00
76866;BME280;66647;52.124;5.416;2023-12-20T01:39:14;101683.13;;;4.40;100.00
76866;BME280;66647;52.124;5.416;2023-12-20T01:41:53;101673.66;;;4.43;100.00
76866;BME280;66647;52.124;5.416;2023-12-20T01:44:20;101674.47;;;4.43;100.00
76866;BME280;66647;52.124;5.416;2023-12-20T01:46:47;101671.19;;;4.41;100.00
76866;BME280;66647;52.124;5.416;2023-12-20T01:49:15;101675.81;;;4.41;100.00
76866;BME280;66647;52.124;5.416;2023-12-20T01:51:42;101660.59;;;4.39;100.00
76866;BME280;66647;52.124;5.416;2023-12-20T01:54:10;101663.88;;;4.42;100.00
76866;BME280;66647;52.124;5.416;2023-12-20T01:56:37;101670.69;;;4.49;100.00
76866;BME280;66647;52.124;5.416;2023-12-20T01:59:04;101672.06;;;4.52;100.00
76866;BME280;66647;52.124;5.416;2023-12-20T02:01:31;101667.72;;;4.51;100.00
76866;BME280;66647;52.124;5.416;2023-12-20T02:03:58;101672.59;;;4.49;100.00
76866;BME280;66647;52.124;5.416;2023-12-20T02:06:29;101665.53;;;4.48;100.00
76866;BME280;66647;52.124;5.416;2023-12-20T02:08:58;101674.75;;;4.47;100.00
76866;BME280;66647;52.124;5.416;2023-12-20T02:11:26;101667.69;;;4.46;100.00
76866;BME280;66647;52.124;5.416;2023-12-20T02:13:53;101666.06;;;4.45;100.00
76866;BME280;66647;52.124;5.416;2023-12-20T02:16:21;101663.59;;;4.43;100.00
76866;BME280;66647;52.124;5.416;2023-12-20T02:18:48;101664.44;;;4.44;100.00
76866;BME280;66647;52.124;5.416;2023-12-20T02:21:15;101657.66;;;4.46;100.00
76866;BME280;66647;52.124;5.416;2023-12-20T02:23:42;101653.88;;;4.52;100.00
76866;BME280;66647;52.124;5.416;2023-12-20T02:26:08;101649.81;;;4.55;100.00
76866;BME280;66647;52.124;5.416;2023-12-20T02:28:35;101659.31;;;4.57;100.00
76866;BME280;66647;52.124;5.416;2023-12-20T02:31:02;101655.50;;;4.58;100.00
76866;BME280;66647;52.124;5.416;2023-12-20T02:33:29;101658.50;;;4.62;100.00
76866;BME280;66647;52.124;5.416;2023-12-20T02:35:56;101652.81;;;4.63;100.00
76866;BME280;66647;52.124;5.416;2023-12-20T02:38:24;101653.91;;;4.62;100.00
76866;BME280;66647;52.124;5.416;2023-12-20T02:40:50;101644.13;;;4.61;100.00
76866;BME280;66647;52.124;5.416;2023-12-20T02:43:17;101652.56;;;4.65;100.00
76866;BME280;66647;52.124;5.416;2023-12-20T02:45:44;101649.84;;;4.65;100.00
76866;BME280;66647;52.124;5.416;2023-12-20T02:48:13;101640.88;;;4.64;100.00
76866;BME280;66647;52.124;5.416;2023-12-20T02:50:39;101637.63;;;4.67;100.00
76866;BME280;66647;52.124;5.416;2023-12-20T02:53:06;101638.44;;;4.68;100.00
76866;BME280;66647;52.124;5.416;2023-12-20T02:55:33;101643.06;;;4.67;100.00
76866;BME280;66647;52.124;5.416;2023-12-20T02:57:59;101639.25;;;4.68;100.00
76866;BME280;66647;52.124;5.416;2023-12-20T03:00:26;101631.63;;;4.65;100.00
76866;BME280;66647;52.124;5.416;2023-12-20T03:02:53;101627.56;;;4.63;100.00
76866;BME280;66647;52.124;5.416;2023-12-20T03:05:20;101625.66;;;4.63;100.00
76866;BME280;66647;52.124;5.416;2023-12-20T03:07:47;101631.09;;;4.63;100.00
76866;BME280;66647;52.124;5.416;2023-12-20T03:10:14;101628.91;;;4.65;100.00
76866;BME280;66647;52.124;5.416;2023-12-20T03:12:51;101625.94;;;4.67;100.00
76866;BME280;66647;52.124;5.416;2023-12-20T03:15:18;101621.31;;;4.67;100.00
76866;BME280;66647;52.124;5.416;2023-12-20T03:17:44;101618.06;;;4.70;100.00
76866;BME280;66647;52.124;5.416;2023-12-20T03:20:12;101627.31;;;4.75;100.00
76866;BME280;66647;52.124;5.416;2023-12-20T03:22:38;101621.91;;;4.75;100.00
76866;BME280;66647;52.124;5.416;2023-12-20T03:25:05;101610.75;;;4.71;100.00
76866;BME280;66647;52.124;5.416;2023-12-20T03:27:32;101612.66;;;4.70;100.00
76866;BME280;66647;52.124;5.416;2023-12-20T03:29:58;101601.22;;;4.68;100.00
76866;BME280;66647;52.124;5.416;2023-12-20T03:32:28;101592.25;;;4.68;100.00
76866;BME280;66647;52.124;5.416;2023-12-20T03:34:55;101608.81;;;4.66;100.00
76866;BME280;66647;52.124;5.416;2023-12-20T03:37:21;101611.81;;;4.65;100.00
76866;BME280;66647;52.124;5.416;2023-12-20T03:39:48;101606.94;;;4.67;100.00
76866;BME280;66647;52.124;5.416;2023-12-20T03:42:15;101611.56;;;4.71;100.00
76866;BME280;66647;52.124;5.416;2023-12-20T03:44:42;101603.16;;;4.73;100.00
76866;BME280;66647;52.124;5.416;2023-12-20T03:47:08;101603.44;;;4.77;100.00
76866;BME280;66647;52.124;5.416;2023-12-20T03:49:35;101609.97;;;4.81;100.00
76866;BME280;66647;52.124;5.416;2023-12-20T03:52:04;101607.78;;;4.83;100.00
76866;BME280;66647;52.124;5.416;2023-12-20T03:54:31;101608.06;;;4.81;100.00
76866;BME280;66647;52.124;5.416;2023-12-20T03:56:58;101606.97;;;4.77;100.00
76866;BME280;66647;52.124;5.416;2023-12-20T03:59:25;101600.97;;;4.75;100.00
76866;BME280;66647;52.124;5.416;2023-12-20T04:01:52;101603.69;;;4.75;100.00
76866;BME280;66647;52.124;5.416;2023-12-20T04:04:19;101600.97;;;4.75;100.00
76866;BME280;66647;52.124;5.416;2023-12-20T04:06:45;101602.59;;;4.76;100.00
76866;BME280;66647;52.124;5.416;2023-12-20T04:09:14;101602.34;;;4.78;100.00
76866;BME280;66647;52.124;5.416;2023-12-20T04:11:41;101599.09;;;4.81;100.00
76866;BME280;66647;52.124;5.416;2023-12-20T04:14:08;101596.66;;;4.84;100.00
76866;BME280;66647;52.124;5.416;2023-12-20T04:16:34;101596.63;;;4.89;100.00
76866;BME280;66647;52.124;5.416;2023-12-20T04:19:01;101594.47;;;4.91;100.00
76866;BME280;66647;52.124;5.416;2023-12-20T04:21:29;101586.59;;;4.90;100.00
76866;BME280;66647;52.124;5.416;2023-12-20T04:23:56;101589.03;;;4.91;100.00
76866;BME280;66647;52.124;5.416;2023-12-20T04:26:22;101588.47;;;4.89;100.00
76866;BME280;66647;52.124;5.416;2023-12-20T04:28:49;101581.69;;;4.92;100.00
76866;BME280;66647;52.124;5.416;2023-12-20T04:31:18;101592.31;;;4.93;100.00
76866;BME280;66647;52.124;5.416;2023-12-20T04:33:45;101586.06;;;4.98;100.00
76866;BME280;66647;52.124;5.416;2023-12-20T04:36:12;101591.50;;;5.03;100.00
76866;BME280;66647;52.124;5.416;2023-12-20T04:38:39;101599.94;;;5.06;100.00
76866;BME280;66647;52.124;5.416;2023-12-20T04:41:05;101603.19;;;5.09;100.00
76866;BME280;66647;52.124;5.416;2023-12-20T04:43:33;101590.16;;;5.11;100.00
76866;BME280;66647;52.124;5.416;2023-12-20T04:46:00;101582.81;;;5.11;100.00
76866;BME280;66647;52.124;5.416;2023-12-20T04:48:27;101586.91;;;5.14;100.00
76866;BME280;66647;52.124;5.416;2023-12-20T04:50:54;101589.34;;;5.15;100.00
76866;BME280;66647;52.124;5.416;2023-12-20T04:53:20;101590.44;;;5.19;100.00
76866;BME280;66647;52.124;5.416;2023-12-20T04:55:47;101579.00;;;5.22;100.00
76866;BME280;66647;52.124;5.416;2023-12-20T04:58:13;101579.53;;;5.24;100.00
76866;BME280;66647;52.124;5.416;2023-12-20T05:00:40;101573.28;;;5.24;100.00
76866;BME280;66647;52.124;5.416;2023-12-20T05:03:07;101572.75;;;5.27;100.00
76866;BME280;66647;52.124;5.416;2023-12-20T05:05:33;101567.03;;;5.28;100.00
76866;BME280;66647;52.124;5.416;2023-12-20T05:08:00;101570.31;;;5.30;100.00
76866;BME280;66647;52.124;5.416;2023-12-20T05:10:27;101573.84;;;5.31;100.00
76866;BME280;66647;52.124;5.416;2023-12-20T05:12:54;101581.44;;;5.34;100.00
76866;BME280;66647;52.124;5.416;2023-12-20T05:15:21;101580.09;;;5.36;100.00
76866;BME280;66647;52.124;5.416;2023-12-20T05:17:47;101577.09;;;5.38;100.00
76866;BME280;66647;52.124;5.416;2023-12-20T05:20:14;101584.19;;;5.39;100.00
76866;BME280;66647;52.124;5.416;2023-12-20T05:22:47;101577.38;;;5.42;100.00
76866;BME280;66647;52.124;5.416;2023-12-20T05:25:14;101571.94;;;5.42;100.00
76866;BME280;66647;52.124;5.416;2023-12-20T05:27:41;101579.00;;;5.43;100.00
76866;BME280;66647;52.124;5.416;2023-12-20T05:30:08;101583.91;;;5.46;100.00
76866;BME280;66647;52.124;5.416;2023-12-20T05:32:35;101582.28;;;5.45;100.00
76866;BME280;66647;52.124;5.416;2023-12-20T05:35:03;101581.47;;;5.44;100.00
76866;BME280;66647;52.124;5.416;2023-12-20T05:37:31;101585.00;;;5.45;100.00
76866;BME280;66647;52.124;5.416;2023-12-20T05:40:01;101581.47;;;5.44;100.00
76866;BME280;66647;52.124;5.416;2023-12-20T05:42:28;101579.56;;;5.45;100.00
76866;BME280;66647;52.124;5.416;2023-12-20T05:44:54;101583.91;;;5.46;100.00
76866;BME280;66647;52.124;5.416;2023-12-20T05:47:25;101578.47;;;5.46;100.00
76866;BME280;66647;52.124;5.416;2023-12-20T05:49:52;101571.94;;;5.47;100.00
76866;BME280;66647;52.124;5.416;2023-12-20T05:52:19;101577.38;;;5.47;100.00
76866;BME280;66647;52.124;5.416;2023-12-20T05:54:45;101580.91;;;5.47;100.00
76866;BME280;66647;52.124;5.416;2023-12-20T05:57:12;101579.56;;;5.50;100.00
76866;BME280;66647;52.124;5.416;2023-12-20T05:59:39;101573.03;;;5.51;100.00
76866;BME280;66647;52.124;5.416;2023-12-20T06:02:06;101570.81;;;5.53;100.00
76866;BME280;66647;52.124;5.416;2023-12-20T06:04:32;101578.97;;;5.53;100.00
76866;BME280;66647;52.124;5.416;2023-12-20T06:06:59;101584.41;;;5.53;100.00
76866;BME280;66647;52.124;5.416;2023-12-20T06:09:27;101574.34;;;5.53;100.00
76866;BME280;66647;52.124;5.416;2023-12-20T06:12:05;101576.81;;;5.55;100.00
76866;BME280;66647;52.124;5.416;2023-12-20T06:14:34;101573.00;;;5.56;100.00
76866;BME280;66647;52.124;5.416;2023-12-20T06:17:01;101577.06;;;5.58;100.00
76866;BME280;66647;52.124;5.416;2023-12-20T06:19:28;101571.09;;;5.61;100.00
76866;BME280;66647;52.124;5.416;2023-12-20T06:21:57;101563.75;;;5.62;100.00
76866;BME280;66647;52.124;5.416;2023-12-20T06:24:23;101564.28;;;5.64;100.00
76866;BME280;66647;52.124;5.416;2023-12-20T06:26:55;101565.91;;;5.65;100.00
76866;BME280;66647;52.124;5.416;2023-12-20T06:29:28;101566.72;;;5.65;100.00
76866;BME280;66647;52.124;5.416;2023-12-20T06:31:54;101562.09;;;5.66;100.00
76866;BME280;66647;52.124;5.416;2023-12-20T06:34:21;101567.00;;;5.69;100.00
76866;BME280;66647;52.124;5.416;2023-12-20T06:36:49;101561.00;;;5.72;100.00
76866;BME280;66647;52.124;5.416;2023-12-20T06:39:16;101562.63;;;5.73;100.00
76866;BME280;66647;52.124;5.416;2023-12-20T06:41:44;101564.28;;;5.74;100.00
76866;BME280;66647;52.124;5.416;2023-12-20T06:44:11;101560.47;;;5.75;100.00
76866;BME280;66647;52.124;5.416;2023-12-20T06:46:37;101560.47;;;5.75;100.00
76866;BME280;66647;52.124;5.416;2023-12-20T06:49:04;101556.91;;;5.74;100.00
76866;BME280;66647;52.124;5.416;2023-12-20T06:51:31;101547.94;;;5.74;100.00
76866;BME280;66647;52.124;5.416;2023-12-20T06:53:57;101545.22;;;5.74;100.00
76866;BME280;66647;52.124;5.416;2023-12-20T06:56:24;101556.38;;;5.78;100.00
76866;BME280;66647;52.124;5.416;2023-12-20T06:58:51;101555.28;;;5.79;100.00
76866;BME280;66647;52.124;5.416;2023-12-20T07:01:19;101555.00;;;5.80;100.00
76866;BME280;66647;52.124;5.416;2023-12-20T07:03:45;101543.03;;;5.81;100.00
76866;BME280;66647;52.124;5.416;2023-12-20T07:06:20;101547.91;;;5.84;100.00
76866;BME280;66647;52.124;5.416;2023-12-20T07:08:49;101553.38;;;5.84;100.00
76866;BME280;66647;52.124;5.416;2023-12-20T07:11:16;101549.53;;;5.85;100.00
76866;BME280;66647;52.124;5.416;2023-12-20T07:13:43;101556.59;;;5.86;100.00
76866;BME280;66647;52.124;5.416;2023-12-20T07:16:09;101557.97;;;5.89;100.00
76866;BME280;66647;52.124;5.416;2023-12-20T07:18:36;101559.84;;;5.88;100.00
76866;BME280;66647;52.124;5.416;2023-12-20T07:21:04;101543.00;;;5.86;100.00
76866;BME280;66647;52.124;5.416;2023-12-20T07:23:31;101543.00;;;5.86;100.00
76866;BME280;66647;52.124;5.416;2023-12-20T07:25:58;101548.16;;;5.88;100.00
76866;BME280;66647;52.124;5.416;2023-12-20T07:28:24;101544.38;;;5.89;100.00
76866;BME280;66647;52.124;5.416;2023-12-20T07:30:51;101545.72;;;5.91;100.00
76866;BME280;66647;52.124;5.416;2023-12-20T07:33:19;101543.53;;;5.93;100.00
76866;BME280;66647;52.124;5.416;2023-12-20T07:35:45;101534.84;;;5.91;100.00
76866;BME280;66647;52.124;5.416;2023-12-20T07:38:12;101528.84;;;5.94;100.00
76866;BME280;66647;52.124;5.416;2023-12-20T07:40:41;101530.19;;;5.97;100.00
76866;BME280;66647;52.124;5.416;2023-12-20T07:43:08;101534.81;;;5.96;100.00
76866;BME280;66647;52.124;5.416;2023-12-20T07:45:36;101541.09;;;5.97;100.00
76866;BME280;66647;52.124;5.416;2023-12-20T07:48:03;101539.72;;;5.99;100.00
76866;BME280;66647;52.124;5.416;2023-12-20T07:50:30;101548.44;;;6.01;100.00
76866;BME280;66647;52.124;5.416;2023-12-20T07:52:57;101548.16;;;6.03;100.00
76866;BME280;66647;52.124;5.416;2023-12-20T07:55:26;101558.75;;;6.04;100.00
76866;BME280;66647;52.124;5.416;2023-12-20T07:57:53;101557.13;;;6.03;100.00
76866;BME280;66647;52.124;5.416;2023-12-20T08:00:19;101560.41;;;6.05;100.00
76866;BME280;66647;52.124;5.416;2023-12-20T08:02:46;101566.09;;;6.09;100.00
76866;BME280;66647;52.124;5.416;2023-12-20T08:05:12;101569.09;;;6.07;100.00
76866;BME280;66647;52.124;5.416;2023-12-20T08:07:42;101566.38;;;6.07;100.00
76866;BME280;66647;52.124;5.416;2023-12-20T08:10:12;101569.91;;;6.08;100.00
76866;BME280;66647;52.124;5.416;2023-12-20T08:12:39;101579.72;;;6.09;100.00
76866;BME280;66647;52.124;5.416;2023-12-20T08:15:09;101576.72;;;6.11;100.00
76866;BME280;66647;52.124;5.416;2023-12-20T08:17:41;101571.81;;;6.13;100.00
76866;BME280;66647;52.124;5.416;2023-12-20T08:20:09;101575.88;;;6.15;100.00
76866;BME280;66647;52.124;5.416;2023-12-20T08:22:38;101574.25;;;6.14;100.00
76866;BME280;66647;52.124;5.416;2023-12-20T08:25:06;101564.72;;;6.17;100.00
76866;BME280;66647;52.124;5.416;2023-12-20T08:27:33;101567.44;;;6.17;100.00
76866;BME280;66647;52.124;5.416;2023-12-20T08:30:52;101560.88;;;6.18;100.00
76866;BME280;66647;52.124;5.416;2023-12-20T08:33:20;101559.50;;;6.20;100.00
76866;BME280;66647;52.124;5.416;2023-12-20T08:36:16;101555.69;;;6.21;100.00
76866;BME280;66647;52.124;5.416;2023-12-20T08:38:59;101546.97;;;6.24;100.00
76866;BME280;66647;52.124;5.416;2023-12-20T08:41:32;101564.13;;;6.25;100.00
76866;BME280;66647;52.124;5.416;2023-12-20T08:44:11;101553.75;;;6.27;100.00
76866;BME280;66647;52.124;5.416;2023-12-20T08:47:09;101555.38;;;6.28;100.00
76866;BME280;66647;52.124;5.416;2023-12-20T08:49:39;101556.47;;;6.27;100.00
76866;BME280;66647;52.124;5.416;2023-12-20T08:52:06;101557.00;;;6.29;100.00
76866;BME280;66647;52.124;5.416;2023-12-20T08:54:33;101550.47;;;6.30;100.00
76866;BME280;66647;52.124;5.416;2023-12-20T08:56:59;101551.56;;;6.29;100.00
76866;BME280;66647;52.124;5.416;2023-12-20T08:59:33;101548.31;;;6.27;100.00
76866;BME280;66647;52.124;5.416;2023-12-20T09:01:59;101552.94;;;6.26;100.00
76866;BME280;66647;52.124;5.416;2023-12-20T09:04:26;101552.13;;;6.26;100.00
76866;BME280;66647;52.124;5.416;2023-12-20T09:06:55;101553.22;;;6.25;100.00
76866;BME280;66647;52.124;5.416;2023-12-20T09:09:22;101546.16;;;6.24;100.00
76866;BME280;66647;52.124;5.416;2023-12-20T09:11:49;101547.78;;;6.25;100.00
76866;BME280;66647;52.124;5.416;2023-12-20T09:14:26;101547.78;;;6.25;100.00
76866;BME280;66647;52.124;5.416;2023-12-20T09:17:18;101551.59;;;6.24;100.00
76866;BME280;66647;52.124;5.416;2023-12-20T09:19:57;101552.69;;;6.23;100.00
76866;BME280;66647;52.124;5.416;2023-12-20T09:22:33;101548.88;;;6.24;100.00
76866;BME280;66647;52.124;5.416;2023-12-20T09:25:11;101547.22;;;6.28;100.00
76866;BME280;66647;52.124;5.416;2023-12-20T09:27:39;101543.69;;;6.27;100.00
76866;BME280;66647;52.124;5.416;2023-12-20T09:30:07;101545.03;;;6.30;100.00
76866;BME280;66647;52.124;5.416;2023-12-20T09:32:34;101542.84;;;6.32;100.00
76866;BME280;66647;52.124;5.416;2023-12-20T09:35:04;101537.66;;;6.35;100.00
76866;BME280;66647;52.124;5.416;2023-12-20T09:37:38;101543.34;;;6.39;100.00
76866;BME280;66647;52.124;5.416;2023-12-20T09:40:09;101544.44;;;6.43;100.00
76866;BME280;66647;52.124;5.416;2023-12-20T09:43:20;101545.50;;;6.47;100.00
76866;BME280;66647;52.124;5.416;2023-12-20T09:45:39;101544.91;;;6.50;100.00
76866;BME280;66647;52.124;5.416;2023-12-20T09:48:07;101550.88;;;6.52;100.00
76866;BME280;66647;52.124;5.416;2023-12-20T09:50:34;101563.41;;;6.53;100.00
76866;BME280;66647;52.124;5.416;2023-12-20T09:53:02;101568.03;;;6.58;100.00
76866;BME280;66647;52.124;5.416;2023-12-20T09:55:32;101549.50;;;6.60;100.00
76866;BME280;66647;52.124;5.416;2023-12-20T09:58:00;101553.00;;;6.65;100.00
76866;BME280;66647;52.124;5.416;2023-12-20T10:00:28;101546.19;;;6.68;100.00
76866;BME280;66647;52.124;5.416;2023-12-20T10:02:59;101556.25;;;6.72;100.00
76866;BME280;66647;52.124;5.416;2023-12-20T10:05:34;101561.66;;;6.78;100.00
76866;BME280;66647;52.124;5.416;2023-12-20T10:08:01;101567.59;;;6.85;100.00
76866;BME280;66647;52.124;5.416;2023-12-20T10:10:30;101561.84;;;6.86;100.00
76866;BME280;66647;52.124;5.416;2023-12-20T10:13:11;101566.47;;;6.91;100.00
76866;BME280;66647;52.124;5.416;2023-12-20T10:15:39;101563.44;;;6.92;100.00
76866;BME280;66647;52.124;5.416;2023-12-20T10:18:11;101568.09;;;6.92;100.00
76866;BME280;66647;52.124;5.416;2023-12-20T10:20:40;101562.63;;;6.92;100.00
76866;BME280;66647;52.124;5.416;2023-12-20T10:23:07;101562.63;;;6.92;100.00
76866;BME280;66647;52.124;5.416;2023-12-20T10:25:34;101565.34;;;6.92;100.00
76866;BME280;66647;52.124;5.416;2023-12-20T10:28:11;101571.34;;;6.94;100.00
76866;BME280;66647;52.124;5.416;2023-12-20T10:30:39;101553.59;;;6.96;100.00
76866;BME280;66647;52.124;5.416;2023-12-20T10:33:07;101548.69;;;6.98;100.00
76866;BME280;66647;52.124;5.416;2023-12-20T10:35:35;101549.22;;;7.00;100.00
76866;BME280;66647;52.124;5.416;2023-12-20T10:38:04;101549.47;;;7.04;100.00
76866;BME280;66647;52.124;5.416;2023-12-20T10:40:36;101546.47;;;7.05;100.00
76866;BME280;66647;52.124;5.416;2023-12-20T10:43:04;101548.91;;;7.07;100.00
76866;BME280;66647;52.124;5.416;2023-12-20T10:45:32;101550.53;;;7.08;100.00
76866;BME280;66647;52.124;5.416;2023-12-20T10:47:59;101539.06;;;7.11;100.00
76866;BME280;66647;52.124;5.416;2023-12-20T10:50:28;101540.09;;;7.15;100.00
76866;BME280;66647;52.124;5.416;2023-12-20T10:52:58;101543.59;;;7.21;100.00
76866;BME280;66647;52.124;5.416;2023-12-20T10:55:25;101540.03;;;7.20;100.00
76866;BME280;66647;52.124;5.416;2023-12-20T10:57:52;101534.84;;;7.24;100.00
76866;BME280;66647;52.124;5.416;2023-12-20T11:00:21;101539.91;;;7.35;100.00
76866;BME280;66647;52.124;5.416;2023-12-20T11:02:50;101538.00;;;7.36;100.00
76866;BME280;66647;52.124;5.416;2023-12-20T11:05:49;101527.91;;;7.36;100.00
76866;BME280;66647;52.124;5.416;2023-12-20T11:08:25;101529.78;;;7.41;100.00
76866;BME280;66647;52.124;5.416;2023-12-20T11:11:06;101519.63;;;7.47;100.00
76866;BME280;66647;52.124;5.416;2023-12-20T11:13:54;101514.34;;;8.03;100.00
76866;BME280;66647;52.124;5.416;2023-12-20T11:16:23;101500.31;;;8.71;100.00
76866;BME280;66647;52.124;5.416;2023-12-20T11:18:51;101515.97;;;8.65;100.00
76866;BME280;66647;52.124;5.416;2023-12-20T11:21:19;101520.31;;;8.48;100.00
76866;BME280;66647;52.124;5.416;2023-12-20T11:23:46;101514.94;;;8.43;100.00
76866;BME280;66647;52.124;5.416;2023-12-20T11:26:15;101497.97;;;8.22;100.00
76866;BME280;66647;52.124;5.416;2023-12-20T11:28:43;101504.22;;;8.03;100.00
76866;BME280;66647;52.124;5.416;2023-12-20T11:31:13;101509.28;;;7.91;100.00
76866;BME280;66647;52.124;5.416;2023-12-20T11:33:40;101499.19;;;7.92;100.00
76866;BME280;66647;52.124;5.416;2023-12-20T11:36:18;101500.91;;;8.06;100.00
76866;BME280;66647;52.124;5.416;2023-12-20T11:38:56;101505.41;;;8.16;100.00
76866;BME280;66647;52.124;5.416;2023-12-20T11:41:27;101488.97;;;8.21;100.00
76866;BME280;66647;52.124;5.416;2023-12-20T11:43:56;101480.53;;;8.18;100.00
76866;BME280;66647;52.124;5.416;2023-12-20T11:46:49;101489.41;;;8.09;100.00
76866;BME280;66647;52.124;5.416;2023-12-20T11:49:16;101488.06;;;8.07;100.00
76866;BME280;66647;52.124;5.416;2023-12-20T11:51:43;101472.50;;;8.07;100.00
76866;BME280;66647;52.124;5.416;2023-12-20T11:54:10;101466.53;;;8.05;100.00
76866;BME280;66647;52.124;5.416;2023-12-20T11:56:38;101478.25;;;8.06;100.00
76866;BME280;66647;52.124;5.416;2023-12-20T11:59:08;101471.16;;;8.05;100.00
76866;BME280;66647;52.124;5.416;2023-12-20T12:01:48;101473.03;;;8.09;100.00
76866;BME280;66647;52.124;5.416;2023-12-20T12:04:17;101474.56;;;8.16;100.00
76866;BME280;66647;52.124;5.416;2023-12-20T12:06:51;101472.72;;;8.11;100.00
76866;BME280;66647;52.124;5.416;2023-12-20T12:09:35;101475.81;;;8.04;100.00
76866;BME280;66647;52.124;5.416;2023-12-20T12:12:28;101480.47;;;8.04;100.00
76866;BME280;66647;52.124;5.416;2023-12-20T12:14:59;101484.06;;;7.99;100.00
76866;BME280;66647;52.124;5.416;2023-12-20T12:17:53;101488.72;;;7.99;100.00
76866;BME280;66647;52.124;5.416;2023-12-20T12:20:40;101494.47;;;7.97;100.00
76866;BME280;66647;52.124;5.416;2023-12-20T12:23:07;101487.63;;;8.00;100.00
76866;BME280;66647;52.124;5.416;2023-12-20T12:25:47;101474.78;;;8.00;100.00
76866;BME280;66647;52.124;5.416;2023-12-20T12:28:15;101476.63;;;8.05;100.00
76866;BME280;66647;52.124;5.416;2023-12-20T12:30:42;101468.16;;;8.06;100.00
76866;BME280;66647;52.124;5.416;2023-12-20T12:33:24;101459.66;;;8.08;100.00
76866;BME280;66647;52.124;5.416;2023-12-20T12:39:26;101446.28;;;8.06;100.00
76866;BME280;66647;52.124;5.416;2023-12-20T12:45:51;101446.00;;;8.08;100.00
76866;BME280;66647;52.124;5.416;2023-12-20T12:48:48;101432.34;;;8.08;100.00
76866;BME280;66647;52.124;5.416;2023-12-20T12:51:16;101435.16;;;8.03;100.00
76866;BME280;66647;52.124;5.416;2023-12-20T12:57:16;101439.78;;;8.02;100.00
76866;BME280;66647;52.124;5.416;2023-12-20T12:59:51;101427.75;;;8.03;100.00
76866;BME280;66647;52.124;5.416;2023-12-20T13:02:18;101423.41;;;8.02;100.00
76866;BME280;66647;52.124;5.416;2023-12-20T13:04:45;101417.94;;;8.02;100.00
76866;BME280;66647;52.124;5.416;2023-12-20T13:07:12;101419.06;;;8.01;100.00
76866;BME280;66647;52.124;5.416;2023-12-20T13:09:39;101414.69;;;8.00;100.00
76866;BME280;66647;52.124;5.416;2023-12-20T13:12:21;101411.44;;;7.98;100.00